Terminal Aerodrome Forecast
Issued by NWS

Home | Current Version | Previous Version | Text Only | Print | Product List | Glossary On
Versions: 1 2 3 4 5 6 7 8 9 10 11 12
000
FTUS44 KTSA 020520
TAFBVO
TAF
KBVO 020520Z 0206/0306 20012KT P6SM FEW050 BKN120
     FM021200 22008KT P6SM SCT250
     FM021500 34007KT P6SM BKN120
     FM022000 02010KT P6SM SCT060 BKN120 PROB30 0220/0302 -TSRA
      BKN050CB
     FM030200 VRB04KT P6SM BKN100=

USA.gov is the U.S. government's official web portal to all federal, state and local government web resources and services.